sensor_id;sensor_type;location;lat;lon;timestamp;P1;durP1;ratioP1;P2;durP2;ratioP2
14381;SDS011;7275;50.328;8.720;2023-04-25T00:01:13;4.60;;;4.07;;
14381;SDS011;7275;50.328;8.720;2023-04-25T00:03:40;4.03;;;3.30;;
14381;SDS011;7275;50.328;8.720;2023-04-25T00:06:08;4.13;;;3.57;;
14381;SDS011;7275;50.328;8.720;2023-04-25T00:08:36;4.70;;;3.43;;
14381;SDS011;7275;50.328;8.720;2023-04-25T00:11:03;4.03;;;3.63;;
14381;SDS011;7275;50.328;8.720;2023-04-25T00:13:32;5.17;;;4.23;;
14381;SDS011;7275;50.328;8.720;2023-04-25T00:16:00;4.70;;;4.30;;
14381;SDS011;7275;50.328;8.720;2023-04-25T00:18:29;3.90;;;3.60;;
14381;SDS011;7275;50.328;8.720;2023-04-25T00:20:56;4.17;;;3.57;;
14381;SDS011;7275;50.328;8.720;2023-04-25T00:23:24;3.60;;;3.30;;
14381;SDS011;7275;50.328;8.720;2023-04-25T00:25:52;4.20;;;3.80;;
14381;SDS011;7275;50.328;8.720;2023-04-25T00:28:19;3.53;;;3.23;;
14381;SDS011;7275;50.328;8.720;2023-04-25T00:30:48;4.50;;;4.10;;
14381;SDS011;7275;50.328;8.720;2023-04-25T00:33:16;4.40;;;4.00;;
14381;SDS011;7275;50.328;8.720;2023-04-25T00:35:43;6.27;;;4.13;;
14381;SDS011;7275;50.328;8.720;2023-04-25T00:38:11;4.23;;;3.83;;
14381;SDS011;7275;50.328;8.720;2023-04-25T00:40:38;4.57;;;4.17;;
14381;SDS011;7275;50.328;8.720;2023-04-25T00:43:06;4.93;;;3.87;;
14381;SDS011;7275;50.328;8.720;2023-04-25T00:45:33;4.37;;;3.93;;
14381;SDS011;7275;50.328;8.720;2023-04-25T00:48:06;4.33;;;3.90;;
14381;SDS011;7275;50.328;8.720;2023-04-25T00:50:34;4.87;;;4.37;;
14381;SDS011;7275;50.328;8.720;2023-04-25T00:53:03;5.30;;;4.03;;
14381;SDS011;7275;50.328;8.720;2023-04-25T00:55:31;4.80;;;4.40;;
14381;SDS011;7275;50.328;8.720;2023-04-25T00:58:00;4.73;;;4.23;;
14381;SDS011;7275;50.328;8.720;2023-04-25T01:00:28;4.47;;;4.07;;
14381;SDS011;7275;50.328;8.720;2023-04-25T01:02:56;4.27;;;3.87;;
14381;SDS011;7275;50.328;8.720;2023-04-25T01:05:25;4.63;;;4.20;;
14381;SDS011;7275;50.328;8.720;2023-04-25T01:07:52;4.43;;;4.03;;
14381;SDS011;7275;50.328;8.720;2023-04-25T01:10:20;4.60;;;4.20;;
14381;SDS011;7275;50.328;8.720;2023-04-25T01:12:48;4.83;;;4.33;;
14381;SDS011;7275;50.328;8.720;2023-04-25T01:15:16;4.40;;;4.00;;
14381;SDS011;7275;50.328;8.720;2023-04-25T01:17:43;4.57;;;4.17;;
14381;SDS011;7275;50.328;8.720;2023-04-25T01:20:11;5.20;;;4.70;;
14381;SDS011;7275;50.328;8.720;2023-04-25T01:22:42;5.30;;;4.23;;
14381;SDS011;7275;50.328;8.720;2023-04-25T01:25:10;4.83;;;4.33;;
14381;SDS011;7275;50.328;8.720;2023-04-25T01:27:37;4.23;;;3.90;;
14381;SDS011;7275;50.328;8.720;2023-04-25T01:30:06;4.37;;;3.97;;
14381;SDS011;7275;50.328;8.720;2023-04-25T01:32:34;4.60;;;4.20;;
14381;SDS011;7275;50.328;8.720;2023-04-25T01:35:05;5.20;;;4.53;;
14381;SDS011;7275;50.328;8.720;2023-04-25T01:37:35;4.73;;;4.30;;
14381;SDS011;7275;50.328;8.720;2023-04-25T01:40:05;4.17;;;3.77;;
14381;SDS011;7275;50.328;8.720;2023-04-25T01:42:34;4.67;;;3.80;;
14381;SDS011;7275;50.328;8.720;2023-04-25T01:45:03;4.80;;;3.73;;
14381;SDS011;7275;50.328;8.720;2023-04-25T01:47:31;4.10;;;3.70;;
14381;SDS011;7275;50.328;8.720;2023-04-25T01:50:01;4.97;;;4.47;;
14381;SDS011;7275;50.328;8.720;2023-04-25T01:52:28;4.40;;;4.00;;
14381;SDS011;7275;50.328;8.720;2023-04-25T01:54:56;5.20;;;4.00;;
14381;SDS011;7275;50.328;8.720;2023-04-25T01:57:26;4.60;;;4.10;;
14381;SDS011;7275;50.328;8.720;2023-04-25T01:59:54;4.33;;;3.93;;
14381;SDS011;7275;50.328;8.720;2023-04-25T02:02:25;5.03;;;3.90;;
14381;SDS011;7275;50.328;8.720;2023-04-25T02:04:53;6.23;;;4.20;;
14381;SDS011;7275;50.328;8.720;2023-04-25T02:07:22;4.27;;;3.60;;
14381;SDS011;7275;50.328;8.720;2023-04-25T02:09:49;4.83;;;4.20;;
14381;SDS011;7275;50.328;8.720;2023-04-25T02:12:17;4.63;;;3.70;;
14381;SDS011;7275;50.328;8.720;2023-04-25T02:14:46;6.13;;;4.00;;
14381;SDS011;7275;50.328;8.720;2023-04-25T02:17:13;5.23;;;3.50;;
14381;SDS011;7275;50.328;8.720;2023-04-25T02:19:42;4.37;;;3.90;;
14381;SDS011;7275;50.328;8.720;2023-04-25T02:22:09;4.57;;;3.90;;
14381;SDS011;7275;50.328;8.720;2023-04-25T02:24:37;5.47;;;4.37;;
14381;SDS011;7275;50.328;8.720;2023-04-25T02:27:04;4.63;;;4.13;;
14381;SDS011;7275;50.328;8.720;2023-04-25T02:29:32;5.33;;;4.33;;
14381;SDS011;7275;50.328;8.720;2023-04-25T02:32:00;5.67;;;4.43;;
14381;SDS011;7275;50.328;8.720;2023-04-25T02:34:28;5.00;;;4.50;;
14381;SDS011;7275;50.328;8.720;2023-04-25T02:36:55;5.20;;;4.37;;
14381;SDS011;7275;50.328;8.720;2023-04-25T02:39:23;6.70;;;4.50;;
14381;SDS011;7275;50.328;8.720;2023-04-25T02:41:51;5.37;;;4.50;;
14381;SDS011;7275;50.328;8.720;2023-04-25T02:44:19;4.20;;;3.80;;
14381;SDS011;7275;50.328;8.720;2023-04-25T02:46:47;5.10;;;4.17;;
14381;SDS011;7275;50.328;8.720;2023-04-25T02:49:16;5.80;;;4.40;;
14381;SDS011;7275;50.328;8.720;2023-04-25T02:51:43;6.17;;;4.27;;
14381;SDS011;7275;50.328;8.720;2023-04-25T02:54:10;4.50;;;3.87;;
14381;SDS011;7275;50.328;8.720;2023-04-25T02:56:38;4.80;;;3.67;;
14381;SDS011;7275;50.328;8.720;2023-04-25T02:59:06;4.47;;;4.03;;
14381;SDS011;7275;50.328;8.720;2023-04-25T03:01:33;6.30;;;4.33;;
14381;SDS011;7275;50.328;8.720;2023-04-25T03:04:01;6.90;;;4.63;;
14381;SDS011;7275;50.328;8.720;2023-04-25T03:06:29;5.17;;;4.23;;
14381;SDS011;7275;50.328;8.720;2023-04-25T03:08:57;5.17;;;4.13;;
14381;SDS011;7275;50.328;8.720;2023-04-25T03:11:25;6.43;;;4.40;;
14381;SDS011;7275;50.328;8.720;2023-04-25T03:13:52;5.83;;;4.27;;
14381;SDS011;7275;50.328;8.720;2023-04-25T03:16:20;5.90;;;4.07;;
14381;SDS011;7275;50.328;8.720;2023-04-25T03:18:48;5.30;;;4.10;;
14381;SDS011;7275;50.328;8.720;2023-04-25T03:21:17;4.67;;;3.93;;
14381;SDS011;7275;50.328;8.720;2023-04-25T03:23:45;4.97;;;4.03;;
14381;SDS011;7275;50.328;8.720;2023-04-25T03:26:13;6.00;;;4.67;;
14381;SDS011;7275;50.328;8.720;2023-04-25T03:28:41;5.83;;;4.40;;
14381;SDS011;7275;50.328;8.720;2023-04-25T03:31:09;6.00;;;4.67;;
14381;SDS011;7275;50.328;8.720;2023-04-25T03:33:36;5.97;;;4.70;;
14381;SDS011;7275;50.328;8.720;2023-04-25T03:36:04;5.73;;;4.37;;
14381;SDS011;7275;50.328;8.720;2023-04-25T03:38:32;6.53;;;4.53;;
14381;SDS011;7275;50.328;8.720;2023-04-25T03:41:01;6.43;;;4.53;;
14381;SDS011;7275;50.328;8.720;2023-04-25T03:43:29;5.17;;;4.47;;
14381;SDS011;7275;50.328;8.720;2023-04-25T03:45:56;4.50;;;4.10;;
14381;SDS011;7275;50.328;8.720;2023-04-25T03:48:24;6.03;;;4.60;;
14381;SDS011;7275;50.328;8.720;2023-04-25T03:50:53;5.50;;;4.67;;
14381;SDS011;7275;50.328;8.720;2023-04-25T03:53:21;5.13;;;4.40;;
14381;SDS011;7275;50.328;8.720;2023-04-25T03:55:48;5.40;;;4.13;;
14381;SDS011;7275;50.328;8.720;2023-04-25T03:58:17;5.27;;;4.17;;
14381;SDS011;7275;50.328;8.720;2023-04-25T04:00:44;4.30;;;3.70;;
14381;SDS011;7275;50.328;8.720;2023-04-25T04:03:12;4.70;;;3.93;;
14381;SDS011;7275;50.328;8.720;2023-04-25T04:05:40;5.30;;;4.20;;
14381;SDS011;7275;50.328;8.720;2023-04-25T04:08:07;4.83;;;4.00;;
14381;SDS011;7275;50.328;8.720;2023-04-25T04:10:35;6.30;;;4.33;;
14381;SDS011;7275;50.328;8.720;2023-04-25T04:13:03;7.53;;;4.57;;
14381;SDS011;7275;50.328;8.720;2023-04-25T04:15:31;5.93;;;4.57;;
14381;SDS011;7275;50.328;8.720;2023-04-25T04:17:59;6.30;;;5.03;;
14381;SDS011;7275;50.328;8.720;2023-04-25T04:20:29;6.23;;;4.90;;
14381;SDS011;7275;50.328;8.720;2023-04-25T04:22:57;5.83;;;5.07;;
14381;SDS011;7275;50.328;8.720;2023-04-25T04:25:24;5.80;;;4.60;;
14381;SDS011;7275;50.328;8.720;2023-04-25T04:27:52;6.07;;;4.43;;
14381;SDS011;7275;50.328;8.720;2023-04-25T04:30:21;4.90;;;4.37;;
14381;SDS011;7275;50.328;8.720;2023-04-25T04:32:51;7.20;;;4.97;;
14381;SDS011;7275;50.328;8.720;2023-04-25T04:35:19;6.63;;;4.57;;
14381;SDS011;7275;50.328;8.720;2023-04-25T04:37:46;4.40;;;4.00;;
14381;SDS011;7275;50.328;8.720;2023-04-25T04:40:14;5.87;;;4.20;;
14381;SDS011;7275;50.328;8.720;2023-04-25T04:42:42;4.90;;;3.97;;
14381;SDS011;7275;50.328;8.720;2023-04-25T04:45:11;6.93;;;4.33;;
14381;SDS011;7275;50.328;8.720;2023-04-25T04:47:39;5.13;;;4.40;;
14381;SDS011;7275;50.328;8.720;2023-04-25T04:50:09;6.17;;;4.17;;
14381;SDS011;7275;50.328;8.720;2023-04-25T04:52:37;5.10;;;4.07;;
14381;SDS011;7275;50.328;8.720;2023-04-25T04:55:06;4.70;;;3.83;;
14381;SDS011;7275;50.328;8.720;2023-04-25T04:57:34;5.93;;;4.30;;
14381;SDS011;7275;50.328;8.720;2023-04-25T05:00:03;8.60;;;4.30;;
14381;SDS011;7275;50.328;8.720;2023-04-25T05:02:32;7.13;;;4.17;;
14381;SDS011;7275;50.328;8.720;2023-04-25T05:05:00;5.33;;;3.90;;
14381;SDS011;7275;50.328;8.720;2023-04-25T05:07:29;4.97;;;3.80;;
14381;SDS011;7275;50.328;8.720;2023-04-25T05:09:56;5.83;;;4.07;;
14381;SDS011;7275;50.328;8.720;2023-04-25T05:12:24;6.30;;;4.27;;
14381;SDS011;7275;50.328;8.720;2023-04-25T05:14:51;5.20;;;3.80;;
14381;SDS011;7275;50.328;8.720;2023-04-25T05:17:19;8.17;;;3.50;;
14381;SDS011;7275;50.328;8.720;2023-04-25T05:19:46;4.53;;;3.43;;
14381;SDS011;7275;50.328;8.720;2023-04-25T05:22:14;3.57;;;2.97;;
14381;SDS011;7275;50.328;8.720;2023-04-25T05:24:43;4.67;;;3.00;;
14381;SDS011;7275;50.328;8.720;2023-04-25T05:27:11;5.97;;;3.10;;
14381;SDS011;7275;50.328;8.720;2023-04-25T05:29:38;3.63;;;2.57;;
14381;SDS011;7275;50.328;8.720;2023-04-25T05:32:06;4.23;;;2.40;;
14381;SDS011;7275;50.328;8.720;2023-04-25T05:34:34;3.80;;;2.60;;
14381;SDS011;7275;50.328;8.720;2023-04-25T05:37:02;3.60;;;2.20;;
14381;SDS011;7275;50.328;8.720;2023-04-25T05:39:29;3.13;;;2.10;;
14381;SDS011;7275;50.328;8.720;2023-04-25T05:41:58;3.13;;;2.20;;
14381;SDS011;7275;50.328;8.720;2023-04-25T05:44:27;3.20;;;2.03;;
14381;SDS011;7275;50.328;8.720;2023-04-25T05:46:55;2.40;;;2.10;;
14381;SDS011;7275;50.328;8.720;2023-04-25T05:49:22;3.10;;;1.97;;
14381;SDS011;7275;50.328;8.720;2023-04-25T05:51:50;3.07;;;2.20;;
14381;SDS011;7275;50.328;8.720;2023-04-25T05:54:17;2.97;;;2.30;;
14381;SDS011;7275;50.328;8.720;2023-04-25T05:56:45;3.20;;;1.93;;
14381;SDS011;7275;50.328;8.720;2023-04-25T05:59:14;2.23;;;1.70;;
14381;SDS011;7275;50.328;8.720;2023-04-25T06:01:41;3.17;;;2.20;;
14381;SDS011;7275;50.328;8.720;2023-04-25T06:04:09;4.23;;;2.20;;
14381;SDS011;7275;50.328;8.720;2023-04-25T06:06:37;3.63;;;2.13;;
14381;SDS011;7275;50.328;8.720;2023-04-25T06:09:04;2.97;;;2.20;;
14381;SDS011;7275;50.328;8.720;2023-04-25T06:11:32;3.33;;;2.17;;
14381;SDS011;7275;50.328;8.720;2023-04-25T06:13:59;3.03;;;2.17;;
14381;SDS011;7275;50.328;8.720;2023-04-25T06:16:28;4.10;;;2.40;;
14381;SDS011;7275;50.328;8.720;2023-04-25T06:18:56;3.30;;;2.03;;
14381;SDS011;7275;50.328;8.720;2023-04-25T06:21:23;3.70;;;2.17;;
14381;SDS011;7275;50.328;8.720;2023-04-25T06:23:51;2.93;;;2.07;;
14381;SDS011;7275;50.328;8.720;2023-04-25T06:26:19;2.77;;;2.13;;
14381;SDS011;7275;50.328;8.720;2023-04-25T06:28:48;3.93;;;2.20;;
14381;SDS011;7275;50.328;8.720;2023-04-25T06:31:16;3.23;;;2.00;;
14381;SDS011;7275;50.328;8.720;2023-04-25T06:33:45;3.93;;;2.33;;
14381;SDS011;7275;50.328;8.720;2023-04-25T06:36:14;3.53;;;2.00;;
14381;SDS011;7275;50.328;8.720;2023-04-25T06:38:42;2.73;;;2.10;;
14381;SDS011;7275;50.328;8.720;2023-04-25T06:41:09;4.47;;;2.47;;
14381;SDS011;7275;50.328;8.720;2023-04-25T06:43:37;4.40;;;2.77;;
14381;SDS011;7275;50.328;8.720;2023-04-25T06:46:07;4.13;;;2.40;;
14381;SDS011;7275;50.328;8.720;2023-04-25T06:48:38;3.70;;;2.43;;
14381;SDS011;7275;50.328;8.720;2023-04-25T06:51:09;2.90;;;2.50;;
14381;SDS011;7275;50.328;8.720;2023-04-25T06:53:39;4.70;;;2.60;;
14381;SDS011;7275;50.328;8.720;2023-04-25T06:56:06;3.70;;;2.30;;
14381;SDS011;7275;50.328;8.720;2023-04-25T06:58:34;3.33;;;2.53;;
14381;SDS011;7275;50.328;8.720;2023-04-25T07:01:03;4.03;;;2.50;;
14381;SDS011;7275;50.328;8.720;2023-04-25T07:03:31;2.37;;;2.17;;
14381;SDS011;7275;50.328;8.720;2023-04-25T07:05:59;3.60;;;2.57;;
14381;SDS011;7275;50.328;8.720;2023-04-25T07:08:28;2.70;;;2.40;;
14381;SDS011;7275;50.328;8.720;2023-04-25T07:10:56;4.00;;;2.40;;
14381;SDS011;7275;50.328;8.720;2023-04-25T07:13:24;3.47;;;2.60;;
14381;SDS011;7275;50.328;8.720;2023-04-25T07:15:51;3.90;;;2.90;;
14381;SDS011;7275;50.328;8.720;2023-04-25T07:18:22;4.13;;;2.90;;
14381;SDS011;7275;50.328;8.720;2023-04-25T07:20:49;7.13;;;2.50;;
14381;SDS011;7275;50.328;8.720;2023-04-25T07:23:17;3.13;;;2.40;;
14381;SDS011;7275;50.328;8.720;2023-04-25T07:25:45;3.10;;;2.57;;
14381;SDS011;7275;50.328;8.720;2023-04-25T07:28:13;4.00;;;2.30;;
14381;SDS011;7275;50.328;8.720;2023-04-25T07:30:44;3.83;;;2.50;;
14381;SDS011;7275;50.328;8.720;2023-04-25T07:33:12;2.90;;;2.27;;
14381;SDS011;7275;50.328;8.720;2023-04-25T07:35:39;2.73;;;2.47;;
14381;SDS011;7275;50.328;8.720;2023-04-25T07:38:07;4.63;;;2.37;;
14381;SDS011;7275;50.328;8.720;2023-04-25T07:40:36;3.47;;;2.23;;
14381;SDS011;7275;50.328;8.720;2023-04-25T07:43:05;3.03;;;2.50;;
14381;SDS011;7275;50.328;8.720;2023-04-25T07:45:32;2.80;;;2.27;;
14381;SDS011;7275;50.328;8.720;2023-04-25T07:48:00;3.07;;;2.53;;
14381;SDS011;7275;50.328;8.720;2023-04-25T07:50:27;4.40;;;2.53;;
14381;SDS011;7275;50.328;8.720;2023-04-25T07:52:55;4.47;;;2.60;;
14381;SDS011;7275;50.328;8.720;2023-04-25T07:55:23;2.80;;;2.40;;
14381;SDS011;7275;50.328;8.720;2023-04-25T07:57:50;4.57;;;2.70;;
14381;SDS011;7275;50.328;8.720;2023-04-25T08:00:19;3.37;;;2.37;;
14381;SDS011;7275;50.328;8.720;2023-04-25T08:02:47;2.83;;;2.37;;
14381;SDS011;7275;50.328;8.720;2023-04-25T08:05:17;3.33;;;2.33;;
14381;SDS011;7275;50.328;8.720;2023-04-25T08:07:48;2.90;;;2.43;;
14381;SDS011;7275;50.328;8.720;2023-04-25T08:10:16;3.33;;;2.20;;
14381;SDS011;7275;50.328;8.720;2023-04-25T08:12:43;2.87;;;2.57;;
14381;SDS011;7275;50.328;8.720;2023-04-25T08:15:11;2.50;;;2.30;;
14381;SDS011;7275;50.328;8.720;2023-04-25T08:17:41;2.67;;;2.27;;
14381;SDS011;7275;50.328;8.720;2023-04-25T08:20:10;3.37;;;2.40;;
14381;SDS011;7275;50.328;8.720;2023-04-25T08:22:38;2.57;;;2.30;;
14381;SDS011;7275;50.328;8.720;2023-04-25T08:25:06;3.70;;;2.30;;
14381;SDS011;7275;50.328;8.720;2023-04-25T08:27:34;3.30;;;2.40;;
14381;SDS011;7275;50.328;8.720;2023-04-25T08:30:02;2.70;;;2.33;;
14381;SDS011;7275;50.328;8.720;2023-04-25T08:32:30;3.10;;;2.20;;
14381;SDS011;7275;50.328;8.720;2023-04-25T08:34:58;3.23;;;2.40;;
14381;SDS011;7275;50.328;8.720;2023-04-25T08:37:26;2.80;;;2.17;;
14381;SDS011;7275;50.328;8.720;2023-04-25T08:39:53;2.87;;;2.30;;
14381;SDS011;7275;50.328;8.720;2023-04-25T08:42:22;3.93;;;2.30;;
14381;SDS011;7275;50.328;8.720;2023-04-25T08:44:50;3.00;;;2.33;;
14381;SDS011;7275;50.328;8.720;2023-04-25T08:47:21;3.13;;;2.47;;
14381;SDS011;7275;50.328;8.720;2023-04-25T08:49:49;2.60;;;2.37;;
14381;SDS011;7275;50.328;8.720;2023-04-25T08:52:22;2.73;;;2.10;;
14381;SDS011;7275;50.328;8.720;2023-04-25T08:54:50;3.00;;;2.33;;
14381;SDS011;7275;50.328;8.720;2023-04-25T08:57:19;2.90;;;2.50;;
14381;SDS011;7275;50.328;8.720;2023-04-25T08:59:47;3.37;;;2.40;;
14381;SDS011;7275;50.328;8.720;2023-04-25T09:02:16;3.20;;;2.60;;
14381;SDS011;7275;50.328;8.720;2023-04-25T09:04:47;2.50;;;2.30;;
14381;SDS011;7275;50.328;8.720;2023-04-25T09:07:15;4.73;;;2.70;;
14381;SDS011;7275;50.328;8.720;2023-04-25T09:09:48;3.20;;;2.50;;
14381;SDS011;7275;50.328;8.720;2023-04-25T09:12:16;2.43;;;2.20;;
14381;SDS011;7275;50.328;8.720;2023-04-25T09:14:55;3.00;;;2.23;;
14381;SDS011;7275;50.328;8.720;2023-04-25T09:17:29;2.93;;;2.37;;
14381;SDS011;7275;50.328;8.720;2023-04-25T09:20:04;3.23;;;2.23;;
14381;SDS011;7275;50.328;8.720;2023-04-25T09:22:33;3.17;;;2.37;;
14381;SDS011;7275;50.328;8.720;2023-04-25T09:25:03;3.07;;;2.20;;
14381;SDS011;7275;50.328;8.720;2023-04-25T09:27:35;2.83;;;2.27;;
14381;SDS011;7275;50.328;8.720;2023-04-25T09:30:03;2.67;;;2.40;;
14381;SDS011;7275;50.328;8.720;2023-04-25T09:32:31;2.57;;;2.37;;
14381;SDS011;7275;50.328;8.720;2023-04-25T09:34:58;3.60;;;2.40;;
14381;SDS011;7275;50.328;8.720;2023-04-25T09:37:27;4.00;;;2.57;;
14381;SDS011;7275;50.328;8.720;2023-04-25T09:39:56;2.30;;;2.10;;
14381;SDS011;7275;50.328;8.720;2023-04-25T09:42:28;3.93;;;2.50;;
14381;SDS011;7275;50.328;8.720;2023-04-25T09:44:58;3.17;;;2.33;;
14381;SDS011;7275;50.328;8.720;2023-04-25T09:47:28;2.90;;;2.40;;
14381;SDS011;7275;50.328;8.720;2023-04-25T09:49:55;2.80;;;2.50;;
14381;SDS011;7275;50.328;8.720;2023-04-25T09:52:23;4.53;;;2.43;;
14381;SDS011;7275;50.328;8.720;2023-04-25T09:54:51;2.90;;;2.40;;
14381;SDS011;7275;50.328;8.720;2023-04-25T09:57:21;2.27;;;2.03;;
14381;SDS011;7275;50.328;8.720;2023-04-25T09:59:52;2.60;;;1.80;;
14381;SDS011;7275;50.328;8.720;2023-04-25T10:02:20;2.00;;;1.80;;
14381;SDS011;7275;50.328;8.720;2023-04-25T10:04:50;3.13;;;1.80;;
14381;SDS011;7275;50.328;8.720;2023-04-25T10:07:22;2.23;;;1.70;;
14381;SDS011;7275;50.328;8.720;2023-04-25T10:09:53;3.13;;;1.80;;
14381;SDS011;7275;50.328;8.720;2023-04-25T10:12:25;2.80;;;2.37;;
14381;SDS011;7275;50.328;8.720;2023-04-25T10:14:55;2.60;;;1.93;;
14381;SDS011;7275;50.328;8.720;2023-04-25T10:17:23;1.90;;;1.60;;
14381;SDS011;7275;50.328;8.720;2023-04-25T10:19:50;2.37;;;1.90;;
14381;SDS011;7275;50.328;8.720;2023-04-25T10:22:20;2.33;;;1.70;;
14381;SDS011;7275;50.328;8.720;2023-04-25T10:24:54;2.67;;;1.60;;
14381;SDS011;7275;50.328;8.720;2023-04-25T10:27:23;2.63;;;1.63;;
14381;SDS011;7275;50.328;8.720;2023-04-25T10:30:01;1.90;;;1.33;;
14381;SDS011;7275;50.328;8.720;2023-04-25T10:32:31;2.57;;;1.50;;
14381;SDS011;7275;50.328;8.720;2023-04-25T10:35:09;2.60;;;1.47;;
14381;SDS011;7275;50.328;8.720;2023-04-25T10:37:37;2.70;;;1.70;;
14381;SDS011;7275;50.328;8.720;2023-04-25T10:40:08;2.10;;;1.30;;
14381;SDS011;7275;50.328;8.720;2023-04-25T10:42:36;2.53;;;1.50;;
14381;SDS011;7275;50.328;8.720;2023-04-25T10:45:06;2.30;;;1.60;;
14381;SDS011;7275;50.328;8.720;2023-04-25T10:47:34;2.58;;;1.50;;
14381;SDS011;7275;50.328;8.720;2023-04-25T10:50:04;3.88;;;1.70;;
14381;SDS011;7275;50.328;8.720;2023-04-25T10:52:33;2.05;;;1.42;;
14381;SDS011;7275;50.328;8.720;2023-04-25T10:55:02;3.25;;;1.50;;
14381;SDS011;7275;50.328;8.720;2023-04-25T10:57:31;2.60;;;1.50;;
14381;SDS011;7275;50.328;8.720;2023-04-25T11:00:09;3.23;;;1.60;;
14381;SDS011;7275;50.328;8.720;2023-04-25T11:02:42;2.47;;;1.50;;
14381;SDS011;7275;50.328;8.720;2023-04-25T11:05:19;2.70;;;1.30;;
14381;SDS011;7275;50.328;8.720;2023-04-25T11:07:58;3.37;;;1.57;;
14381;SDS011;7275;50.328;8.720;2023-04-25T11:10:33;2.40;;;1.43;;
14381;SDS011;7275;50.328;8.720;2023-04-25T11:13:02;3.73;;;1.40;;
14381;SDS011;7275;50.328;8.720;2023-04-25T11:15:31;2.07;;;1.40;;
14381;SDS011;7275;50.328;8.720;2023-04-25T11:17:59;1.97;;;1.37;;
14381;SDS011;7275;50.328;8.720;2023-04-25T11:20:27;2.40;;;1.50;;
14381;SDS011;7275;50.328;8.720;2023-04-25T11:22:56;1.83;;;1.27;;
14381;SDS011;7275;50.328;8.720;2023-04-25T11:25:25;3.20;;;1.60;;
14381;SDS011;7275;50.328;8.720;2023-04-25T11:27:53;3.30;;;1.43;;
14381;SDS011;7275;50.328;8.720;2023-04-25T11:30:22;2.50;;;1.63;;
14381;SDS011;7275;50.328;8.720;2023-04-25T11:32:52;3.13;;;1.40;;
14381;SDS011;7275;50.328;8.720;2023-04-25T11:35:21;2.87;;;1.97;;
14381;SDS011;7275;50.328;8.720;2023-04-25T11:37:49;6.20;;;4.10;;
14381;SDS011;7275;50.328;8.720;2023-04-25T11:40:17;4.23;;;2.57;;
14381;SDS011;7275;50.328;8.720;2023-04-25T11:42:45;2.57;;;1.57;;
14381;SDS011;7275;50.328;8.720;2023-04-25T11:45:14;3.20;;;1.73;;
14381;SDS011;7275;50.328;8.720;2023-04-25T11:47:42;2.20;;;1.50;;
14381;SDS011;7275;50.328;8.720;2023-04-25T11:50:11;2.47;;;1.47;;
14381;SDS011;7275;50.328;8.720;2023-04-25T11:52:41;1.90;;;1.40;;
14381;SDS011;7275;50.328;8.720;2023-04-25T11:55:09;3.83;;;1.60;;
14381;SDS011;7275;50.328;8.720;2023-04-25T11:57:40;2.77;;;1.70;;
14381;SDS011;7275;50.328;8.720;2023-04-25T12:00:10;3.00;;;1.80;;
14381;SDS011;7275;50.328;8.720;2023-04-25T12:02:44;2.77;;;1.60;;
14381;SDS011;7275;50.328;8.720;2023-04-25T12:05:15;3.13;;;1.60;;
14381;SDS011;7275;50.328;8.720;2023-04-25T12:07:58;3.60;;;1.70;;
14381;SDS011;7275;50.328;8.720;2023-04-25T12:10:37;2.07;;;1.40;;
14381;SDS011;7275;50.328;8.720;2023-04-25T12:13:19;4.33;;;1.77;;
14381;SDS011;7275;50.328;8.720;2023-04-25T12:15:47;3.87;;;1.87;;
14381;SDS011;7275;50.328;8.720;2023-04-25T12:18:18;3.37;;;1.70;;
14381;SDS011;7275;50.328;8.720;2023-04-25T12:20:47;2.50;;;1.70;;
14381;SDS011;7275;50.328;8.720;2023-04-25T12:23:15;2.50;;;1.50;;
14381;SDS011;7275;50.328;8.720;2023-04-25T12:25:43;3.20;;;1.70;;
14381;SDS011;7275;50.328;8.720;2023-04-25T12:28:13;4.20;;;1.90;;
14381;SDS011;7275;50.328;8.720;2023-04-25T12:30:54;3.60;;;1.80;;
14381;SDS011;7275;50.328;8.720;2023-04-25T12:33:24;2.70;;;1.47;;
14381;SDS011;7275;50.328;8.720;2023-04-25T12:35:53;2.53;;;1.50;;
14381;SDS011;7275;50.328;8.720;2023-04-25T12:38:21;2.30;;;1.60;;
14381;SDS011;7275;50.328;8.720;2023-04-25T12:40:50;3.33;;;2.08;;
14381;SDS011;7275;50.328;8.720;2023-04-25T12:43:17;2.60;;;1.80;;
14381;SDS011;7275;50.328;8.720;2023-04-25T12:45:46;2.53;;;1.30;;
14381;SDS011;7275;50.328;8.720;2023-04-25T12:48:14;2.72;;;1.70;;
14381;SDS011;7275;50.328;8.720;2023-04-25T12:50:42;2.50;;;1.60;;
14381;SDS011;7275;50.328;8.720;2023-04-25T12:53:11;3.53;;;1.70;;
14381;SDS011;7275;50.328;8.720;2023-04-25T12:55:39;2.67;;;1.77;;
14381;SDS011;7275;50.328;8.720;2023-04-25T12:58:06;3.47;;;1.83;;
14381;SDS011;7275;50.328;8.720;2023-04-25T13:00:34;3.00;;;1.50;;
14381;SDS011;7275;50.328;8.720;2023-04-25T13:03:02;3.10;;;1.70;;
14381;SDS011;7275;50.328;8.720;2023-04-25T13:05:30;3.17;;;1.70;;
14381;SDS011;7275;50.328;8.720;2023-04-25T13:07:58;4.40;;;1.70;;
14381;SDS011;7275;50.328;8.720;2023-04-25T13:10:27;3.35;;;1.55;;
14381;SDS011;7275;50.328;8.720;2023-04-25T13:12:55;3.55;;;1.67;;
14381;SDS011;7275;50.328;8.720;2023-04-25T13:15:23;3.80;;;1.55;;
14381;SDS011;7275;50.328;8.720;2023-04-25T13:17:50;4.17;;;1.80;;
14381;SDS011;7275;50.328;8.720;2023-04-25T13:20:18;2.50;;;1.53;;
14381;SDS011;7275;50.328;8.720;2023-04-25T13:22:48;3.77;;;2.10;;
14381;SDS011;7275;50.328;8.720;2023-04-25T13:25:15;3.30;;;1.67;;
14381;SDS011;7275;50.328;8.720;2023-04-25T13:27:44;3.80;;;1.50;;
14381;SDS011;7275;50.328;8.720;2023-04-25T13:30:12;2.40;;;1.57;;
14381;SDS011;7275;50.328;8.720;2023-04-25T13:32:41;2.53;;;1.50;;
14381;SDS011;7275;50.328;8.720;2023-04-25T13:35:09;3.85;;;1.90;;
14381;SDS011;7275;50.328;8.720;2023-04-25T13:37:38;2.72;;;1.80;;
14381;SDS011;7275;50.328;8.720;2023-04-25T13:40:06;4.15;;;1.60;;
14381;SDS011;7275;50.328;8.720;2023-04-25T13:42:36;3.33;;;1.50;;
14381;SDS011;7275;50.328;8.720;2023-04-25T13:45:07;2.25;;;1.60;;
14381;SDS011;7275;50.328;8.720;2023-04-25T13:47:35;3.50;;;1.47;;
14381;SDS011;7275;50.328;8.720;2023-04-25T13:50:02;2.13;;;1.40;;
14381;SDS011;7275;50.328;8.720;2023-04-25T13:52:31;2.43;;;1.30;;
14381;SDS011;7275;50.328;8.720;2023-04-25T13:54:59;3.13;;;1.63;;
14381;SDS011;7275;50.328;8.720;2023-04-25T13:57:30;3.67;;;1.60;;
14381;SDS011;7275;50.328;8.720;2023-04-25T13:59:57;3.57;;;1.87;;
14381;SDS011;7275;50.328;8.720;2023-04-25T14:02:26;3.03;;;1.70;;
14381;SDS011;7275;50.328;8.720;2023-04-25T14:04:54;3.60;;;1.50;;
14381;SDS011;7275;50.328;8.720;2023-04-25T14:07:21;3.67;;;1.80;;
14381;SDS011;7275;50.328;8.720;2023-04-25T14:09:49;2.37;;;1.43;;
14381;SDS011;7275;50.328;8.720;2023-04-25T14:12:17;2.87;;;1.77;;
14381;SDS011;7275;50.328;8.720;2023-04-25T14:14:44;4.03;;;1.70;;
14381;SDS011;7275;50.328;8.720;2023-04-25T14:17:12;4.73;;;1.60;;
14381;SDS011;7275;50.328;8.720;2023-04-25T14:19:40;2.53;;;1.37;;
14381;SDS011;7275;50.328;8.720;2023-04-25T14:22:11;2.57;;;1.50;;
14381;SDS011;7275;50.328;8.720;2023-04-25T14:24:38;2.77;;;1.40;;
14381;SDS011;7275;50.328;8.720;2023-04-25T14:27:06;2.43;;;1.60;;
14381;SDS011;7275;50.328;8.720;2023-04-25T14:29:34;3.13;;;1.40;;
14381;SDS011;7275;50.328;8.720;2023-04-25T14:32:01;2.10;;;1.30;;
14381;SDS011;7275;50.328;8.720;2023-04-25T14:34:29;3.27;;;1.40;;
14381;SDS011;7275;50.328;8.720;2023-04-25T14:36:58;2.93;;;1.63;;
14381;SDS011;7275;50.328;8.720;2023-04-25T14:39:27;2.67;;;1.50;;
14381;SDS011;7275;50.328;8.720;2023-04-25T14:41:54;2.73;;;1.43;;
14381;SDS011;7275;50.328;8.720;2023-04-25T14:44:22;3.30;;;1.60;;
14381;SDS011;7275;50.328;8.720;2023-04-25T14:46:50;4.00;;;1.87;;
14381;SDS011;7275;50.328;8.720;2023-04-25T14:49:18;2.23;;;1.30;;
14381;SDS011;7275;50.328;8.720;2023-04-25T14:51:46;3.30;;;1.60;;
14381;SDS011;7275;50.328;8.720;2023-04-25T14:54:17;4.57;;;1.60;;
14381;SDS011;7275;50.328;8.720;2023-04-25T14:56:45;1.77;;;1.30;;
14381;SDS011;7275;50.328;8.720;2023-04-25T14:59:12;2.73;;;1.50;;
14381;SDS011;7275;50.328;8.720;2023-04-25T15:01:40;3.43;;;1.60;;
14381;SDS011;7275;50.328;8.720;2023-04-25T15:04:07;1.67;;;1.30;;
14381;SDS011;7275;50.328;8.720;2023-04-25T15:06:35;2.27;;;1.50;;
14381;SDS011;7275;50.328;8.720;2023-04-25T15:09:03;2.03;;;1.40;;